createdAt,value
2022-08-05T00:04:29.991Z,148005.75
2022-08-05T00:09:34.692Z,148010.72
2022-08-05T00:14:37.300Z,148038.13
2022-08-05T00:19:45.604Z,148049.34
2022-08-05T00:24:59.427Z,148061.78
2022-08-05T00:30:04.562Z,148086.63
2022-08-05T00:35:08.436Z,148086.63
2022-08-05T00:40:13.747Z,148082.91
2022-08-05T00:45:28.413Z,148082.91
2022-08-05T00:50:44.264Z,148084.16
2022-08-05T00:55:50.697Z,148086.63
2022-08-05T01:00:53.267Z,148089.13
2022-08-05T01:05:56.594Z,148081.66
2022-08-05T01:11:03.745Z,148071.72
2022-08-05T01:16:11.293Z,148084.16
2022-08-05T01:21:25.575Z,148072.97
2022-08-05T01:26:55.427Z,148061.78
2022-08-05T01:32:03.202Z,148066.75
2022-08-05T01:37:10.604Z,148075.44
2022-08-05T01:42:28.771Z,148080.41
2022-08-05T01:47:38.994Z,148075.44
2022-08-05T01:52:44.946Z,148085.38
2022-08-05T01:58:10.298Z,148095.34
2022-08-05T02:03:31.389Z,148100.31
2022-08-05T02:08:40.879Z,148100.31
2022-08-05T02:14:12.664Z,148109.06
2022-08-05T02:19:25.588Z,148100.31
2022-08-05T02:24:41.079Z,148099.06
2022-08-05T02:29:58.477Z,148112.78
2022-08-05T02:35:13.333Z,148117.75
2022-08-05T02:40:18.097Z,148109.06
2022-08-05T02:45:23.810Z,148106.53
2022-08-05T02:50:30.218Z,148100.31
2022-08-05T02:55:54.399Z,148094.09
2022-08-05T03:00:57.508Z,148100.31
2022-08-05T03:06:55.389Z,148095.34
2022-08-05T03:11:57.543Z,148091.59
2022-08-05T03:16:49.254Z,148107.81
2022-08-05T03:21:55.714Z,148094.09
2022-08-05T03:26:58.880Z,148085.38
2022-08-05T03:32:01.767Z,148086.63
2022-08-05T03:37:07.352Z,148070.47
2022-08-05T03:42:12.862Z,148081.66
2022-08-05T03:47:15.493Z,148075.44
2022-08-05T03:52:38.457Z,148063.03
2022-08-05T03:57:49.666Z,148060.53
2022-08-05T04:02:59.016Z,148056.81
2022-08-05T04:08:05.541Z,148059.28
2022-08-05T04:13:08.709Z,148045.56
2022-08-05T04:18:20.549Z,148058.06
2022-08-05T04:23:57.272Z,148059.28
2022-08-05T04:28:52.235Z,148053.06
2022-08-05T04:34:31.401Z,148033.16
2022-08-05T04:39:18.857Z,148023.22
2022-08-05T04:44:30.006Z,148023.22
2022-08-05T04:49:38.427Z,148033.16
2022-08-05T04:54:57.939Z,148041.84
2022-08-05T05:00:01.484Z,148056.81
2022-08-05T05:05:04.183Z,148076.69
2022-08-05T05:10:29.641Z,148080.41
2022-08-05T05:15:57.320Z,148068.00
2022-08-05T05:20:56.113Z,148082.91
2022-08-05T05:26:02.512Z,148072.97
2022-08-05T05:31:05.626Z,148070.47
2022-08-05T05:36:11.444Z,148081.66
2022-08-05T05:41:18.597Z,148090.38
2022-08-05T05:46:21.883Z,148102.78
2022-08-05T05:51:49.870Z,148128.94
2022-08-05T05:56:54.723Z,148171.25
2022-08-05T06:01:58.191Z,148192.38
2022-08-05T06:07:01.689Z,148212.28
2022-08-05T06:12:06.395Z,148230.97
2022-08-05T06:17:22.513Z,148252.13
2022-08-05T06:22:28.594Z,148249.63
2022-08-05T06:28:11.728Z,148279.50
2022-08-05T06:32:55.604Z,148283.28
2022-08-05T06:38:00.958Z,148277.03
2022-08-05T06:43:58.092Z,148294.50
2022-08-05T06:48:54.609Z,148279.50
2022-08-05T06:53:53.798Z,148283.28
2022-08-05T06:58:57.791Z,148301.94
2022-08-05T07:04:01.275Z,148401.53
2022-08-05T07:09:04.654Z,148471.25
2022-08-05T07:14:29.312Z,148541.03
2022-08-05T07:24:55.871Z,148671.81
2022-08-05T07:30:24.441Z,148729.19
2022-08-05T07:36:01.813Z,148645.66
2022-08-05T07:40:45.474Z,148648.16
2022-08-05T07:45:59.444Z,148695.50
2022-08-05T07:51:04.411Z,148671.81
2022-08-05T07:57:00.063Z,148656.88
2022-08-05T08:01:52.495Z,148653.13
2022-08-05T08:07:00.910Z,148671.81
2022-08-05T08:12:19.980Z,148675.53
2022-08-05T08:17:32.508Z,148782.75
2022-08-05T08:22:35.232Z,148856.28
2022-08-05T08:27:44.844Z,148929.88
2022-08-05T08:32:51.210Z,149002.22
2022-08-05T08:37:56.316Z,149030.88
2022-08-05T08:44:57.883Z,149092.00
2022-08-05T08:49:02.987Z,149107.00
2022-08-05T08:53:49.838Z,149195.59
2022-08-05T08:58:52.552Z,149191.84
2022-08-05T09:03:57.547Z,149179.38
2022-08-05T09:09:02.790Z,149326.66
2022-08-05T09:14:54.042Z,149316.63
2022-08-05T09:19:36.761Z,149761.34
2022-08-05T09:24:59.297Z,149718.84
2022-08-05T09:30:06.434Z,149905.06
2022-08-05T09:35:26.465Z,149995.09
2022-08-05T09:40:32.346Z,149983.84
2022-08-05T09:46:07.570Z,149805.06
2022-08-05T09:51:02.971Z,149556.41
2022-08-05T09:56:13.046Z,149381.56
2022-08-05T10:01:31.990Z,149344.16
2022-08-05T10:06:36.601Z,149294.19
2022-08-05T10:11:39.267Z,149471.47
2022-08-05T10:16:53.089Z,149921.34
2022-08-05T10:21:57.322Z,150266.59
2022-08-05T10:27:01.431Z,150455.56
2022-08-05T10:32:51.521Z,149828.81
2022-08-05T10:37:41.313Z,149711.34
2022-08-05T10:42:51.685Z,150475.56
2022-08-05T10:48:29.232Z,150097.69
2022-08-05T10:53:38.255Z,149842.53
2022-08-05T10:59:03.951Z,150006.34
2022-08-05T11:04:17.325Z,150110.16
2022-08-05T11:09:39.066Z,149953.81
2022-08-05T11:15:01.506Z,150193.94
2022-08-05T11:20:34.206Z,150336.63
2022-08-05T11:26:04.343Z,150429.25
2022-08-05T11:31:57.148Z,150436.81
2022-08-05T11:36:52.589Z,150295.34
2022-08-05T11:42:02.260Z,150269.09
2022-08-05T11:47:10.908Z,150287.84
2022-08-05T11:52:24.484Z,150474.31
2022-08-05T11:58:08.002Z,150403.00
2022-08-05T12:02:56.586Z,150401.75
2022-08-05T12:08:07.901Z,150211.50
2022-08-05T12:13:27.636Z,149868.81
2022-08-05T12:18:39.722Z,150398.00
2022-08-05T12:24:00.096Z,150395.50
2022-08-05T12:29:14.408Z,150163.94
2022-08-05T12:34:23.477Z,149961.31
2022-08-05T12:39:37.610Z,149736.38
2022-08-05T12:44:44.337Z,150070.16
2022-08-05T12:50:04.098Z,150206.50
2022-08-05T12:55:22.602Z,150103.94
2022-08-05T13:02:03.859Z,150030.13
2022-08-05T13:05:52.574Z,150051.34
2022-08-05T13:11:00.713Z,150017.56
2022-08-05T13:16:12.378Z,149962.56
2022-08-05T13:21:19.383Z,149920.09
2022-08-05T13:26:27.214Z,150006.34
2022-08-05T13:32:04.966Z,149971.34
2022-08-05T13:36:56.836Z,150023.88
2022-08-05T13:41:59.700Z,149931.34
2022-08-05T13:47:08.838Z,149897.56
2022-08-05T13:52:13.218Z,150050.09
2022-08-05T13:57:16.340Z,150135.16
2022-08-05T14:02:20.665Z,150167.69
2022-08-05T14:08:00.611Z,149968.88
2022-08-05T14:12:54.496Z,150050.09
2022-08-05T14:17:59.840Z,149988.84
2022-08-05T14:23:03.530Z,150048.84
2022-08-05T14:28:06.095Z,149600.13
2022-08-05T14:33:10.524Z,149314.13
2022-08-05T14:38:32.242Z,149502.72
2022-08-05T14:43:51.818Z,149641.34
2022-08-05T14:49:07.400Z,149806.31
2022-08-05T14:54:28.753Z,149636.38
2022-08-05T14:59:35.725Z,149468.97
2022-08-05T15:04:39.764Z,149411.56
2022-08-05T15:09:52.749Z,149626.38
2022-08-05T15:14:57.881Z,149876.31
2022-08-05T15:20:01.815Z,149745.09
2022-08-05T15:25:13.748Z,149526.47
2022-08-05T15:30:17.318Z,149478.97
2022-08-05T15:35:21.806Z,149696.31
2022-08-05T15:41:00.836Z,149746.34
2022-08-05T15:45:47.440Z,149671.31
2022-08-05T15:50:51.443Z,149747.59
2022-08-05T15:56:02.743Z,149748.84
2022-08-05T16:01:17.079Z,149806.31
2022-08-05T16:06:23.121Z,149766.31
2022-08-05T16:11:42.884Z,149663.81
2022-08-05T16:16:47.231Z,149648.84
2022-08-05T16:22:01.133Z,149603.88
2022-08-05T16:27:07.412Z,149603.88
2022-08-05T16:32:10.314Z,149608.88
2022-08-05T16:38:02.422Z,149706.31
2022-08-05T16:42:37.309Z,149742.59
2022-08-05T16:47:53.553Z,149621.38
2022-08-05T16:53:01.637Z,149409.06
2022-08-05T16:58:15.571Z,149391.59
2022-08-05T17:03:22.722Z,149191.84
2022-08-05T17:08:33.597Z,149136.97
2022-08-05T17:13:46.215Z,149170.66
2022-08-05T17:18:48.816Z,149193.09
2022-08-05T17:24:06.031Z,149199.31
2022-08-05T17:29:15.447Z,149141.94
2022-08-05T17:34:18.223Z,148971.03
2022-08-05T17:39:23.755Z,148912.38
2022-08-05T17:44:32.720Z,148806.47
2022-08-05T17:49:59.715Z,148742.88
2022-08-05T17:54:59.728Z,148646.91
2022-08-05T18:00:05.345Z,148574.69
2022-08-05T18:05:09.668Z,148503.66
2022-08-05T18:10:21.411Z,148451.31
2022-08-05T18:15:27.047Z,148382.84
2022-08-05T18:20:31.960Z,148335.53
2022-08-05T18:25:36.441Z,148298.22
2022-08-05T18:30:41.794Z,148263.34
2022-08-05T18:36:00.095Z,148224.75
2022-08-05T18:41:56.161Z,148188.66
2022-08-05T18:46:31.443Z,148145.09
2022-08-05T18:52:05.715Z,148106.53
2022-08-05T18:57:15.537Z,148050.59
2022-08-05T19:02:36.488Z,148013.22
2022-08-05T19:07:42.342Z,147968.44
2022-08-05T19:12:49.698Z,147917.47
2022-08-05T19:18:08.532Z,147867.72
2022-08-05T19:24:04.397Z,147810.56
2022-08-05T19:28:36.554Z,147774.53
2022-08-05T19:33:40.607Z,147740.91
2022-08-05T19:38:51.290Z,147687.50
2022-08-05T19:44:06.630Z,147675.06
2022-08-05T19:49:16.798Z,147662.66
2022-08-05T19:54:26.799Z,147626.63
2022-08-05T20:00:00.198Z,147593.09
2022-08-05T20:04:58.747Z,147554.59
2022-08-05T20:10:02.396Z,147540.94
2022-08-05T20:15:23.012Z,147502.44
2022-08-05T20:20:38.996Z,147450.22
2022-08-05T20:25:42.008Z,147410.47
2022-08-05T20:30:45.866Z,147377.00
2022-08-05T20:35:50.483Z,147329.81
2022-08-05T20:40:52.976Z,147297.56
2022-08-05T20:46:00.381Z,147252.88
2022-08-05T20:51:08.351Z,147223.09
2022-08-05T20:56:11.000Z,147184.66
2022-08-05T21:01:14.872Z,147179.66
2022-08-05T21:06:28.591Z,147159.78
2022-08-05T21:12:09.066Z,147131.28
2022-08-05T21:16:56.982Z,147089.09
2022-08-05T21:21:59.527Z,147053.09
2022-08-05T21:27:02.167Z,147024.59
2022-08-05T21:32:07.080Z,146996.06
2022-08-05T21:37:09.682Z,146972.53
2022-08-05T21:42:30.788Z,146941.50
2022-08-05T21:47:56.100Z,146900.63
2022-08-05T21:53:04.546Z,146872.09
2022-08-05T21:58:11.658Z,146848.56
2022-08-05T22:03:15.703Z,146817.53
2022-08-05T22:08:24.158Z,146792.75
2022-08-05T22:14:31.256Z,146759.28
2022-08-05T22:18:52.798Z,146730.81
2022-08-05T22:24:40.301Z,146714.69
2022-08-05T22:29:35.763Z,146718.38
2022-08-05T22:34:39.631Z,146714.69
2022-08-05T22:39:43.227Z,146707.25
2022-08-05T22:44:48.580Z,146699.81
2022-08-05T22:50:20.443Z,146702.31
2022-08-05T22:55:24.789Z,146684.97
2022-08-05T23:00:29.222Z,146650.28
2022-08-05T23:05:36.157Z,146623.03
2022-08-05T23:10:38.817Z,146615.63
2022-08-05T23:15:41.522Z,146616.84
2022-08-05T23:20:46.866Z,146606.97
2022-08-05T23:25:55.450Z,146573.50
2022-08-05T23:31:07.042Z,146546.25
2022-08-05T23:36:28.233Z,146536.34
2022-08-05T23:41:34.287Z,146538.81
2022-08-05T23:46:40.298Z,146528.91
2022-08-05T23:52:03.375Z,146516.56
2022-08-05T23:57:08.963Z,146506.66
